createdAt,value
2022-11-08T00:02:05.172Z,100695.63
2022-11-08T00:04:32.197Z,100694.63
2022-11-08T00:07:17.517Z,100693.69
2022-11-08T00:10:02.745Z,100707.72
2022-11-08T00:12:47.692Z,100709.19
2022-11-08T00:15:14.638Z,100706.00
2022-11-08T00:17:41.352Z,100699.53
2022-11-08T00:20:09.054Z,100711.31
2022-11-08T00:22:35.594Z,100705.66
2022-11-08T00:25:02.522Z,100708.13
2022-11-08T00:27:29.090Z,100702.38
2022-11-08T00:29:55.682Z,100707.03
2022-11-08T00:32:24.891Z,100709.78
2022-11-08T00:34:52.601Z,100707.66
2022-11-08T00:37:21.043Z,100703.22
2022-11-08T00:39:47.909Z,100706.81
2022-11-08T00:42:14.741Z,100698.69
2022-11-08T00:44:41.279Z,100705.44
2022-11-08T00:47:08.873Z,100704.41
2022-11-08T00:49:35.444Z,100703.63
2022-11-08T00:52:02.677Z,100700.38
2022-11-08T00:54:29.180Z,100696.28
2022-11-08T00:56:55.666Z,100700.19
2022-11-08T00:59:22.136Z,100703.19
2022-11-08T01:01:48.780Z,100707.63
2022-11-08T01:04:17.745Z,100709.75
2022-11-08T01:06:44.559Z,100713.56
2022-11-08T01:09:11.070Z,100703.84
2022-11-08T01:11:39.092Z,100702.47
2022-11-08T01:14:05.840Z,100706.56
2022-11-08T01:16:33.866Z,100702.19
2022-11-08T01:19:02.569Z,100708.53
2022-11-08T01:21:29.564Z,100709.06
2022-11-08T01:23:56.517Z,100697.13
2022-11-08T01:26:26.213Z,100701.47
2022-11-08T01:28:54.148Z,100702.28
2022-11-08T01:31:24.495Z,100699.09
2022-11-08T01:33:52.031Z,100697.19
2022-11-08T01:36:21.919Z,100708.16
2022-11-08T01:38:48.928Z,100698.59
2022-11-08T01:41:17.019Z,100700.56
2022-11-08T01:43:48.350Z,100690.47
2022-11-08T01:46:34.015Z,100690.28
2022-11-08T01:49:27.119Z,100687.59
2022-11-08T01:52:21.089Z,100677.78
2022-11-08T01:54:53.295Z,100687.63
2022-11-08T01:57:31.487Z,100674.56
2022-11-08T02:00:02.840Z,100673.75
2022-11-08T02:02:36.924Z,100677.00
2022-11-08T02:05:07.656Z,100671.78
2022-11-08T02:07:34.915Z,100671.78
2022-11-08T02:10:03.148Z,100662.25
2022-11-08T02:12:30.003Z,100672.34
2022-11-08T02:14:56.543Z,100661.28
2022-11-08T02:17:23.137Z,100670.56
2022-11-08T02:19:51.017Z,100678.97
2022-11-08T02:22:29.021Z,100670.28
2022-11-08T02:24:58.276Z,100668.34
2022-11-08T02:27:25.675Z,100656.94
2022-11-08T02:29:54.577Z,100670.00
2022-11-08T02:32:21.440Z,100660.19
2022-11-08T02:34:53.914Z,100654.72
2022-11-08T02:37:22.038Z,100658.84
2022-11-08T02:39:48.619Z,100664.56
2022-11-08T02:42:18.487Z,100654.94
2022-11-08T02:44:46.365Z,100665.44
2022-11-08T02:47:13.077Z,100650.69
2022-11-08T02:49:39.712Z,100659.19
2022-11-08T02:52:06.685Z,100654.28
2022-11-08T02:54:33.279Z,100659.69
2022-11-08T02:56:59.838Z,100659.69
2022-11-08T02:59:26.393Z,100654.00
2022-11-08T03:01:54.171Z,100654.78
2022-11-08T03:04:20.773Z,100661.13
2022-11-08T03:06:47.278Z,100673.13
2022-11-08T03:09:13.896Z,100666.25
2022-11-08T03:11:40.381Z,100661.41
2022-11-08T03:14:06.950Z,100651.06
2022-11-08T03:16:33.808Z,100657.34
2022-11-08T03:19:00.668Z,100653.84
2022-11-08T03:21:27.869Z,100656.56
2022-11-08T03:23:54.522Z,100653.31
2022-11-08T03:26:21.217Z,100654.94
2022-11-08T03:28:47.634Z,100653.31
2022-11-08T03:31:14.089Z,100656.06
2022-11-08T03:33:40.665Z,100649.53
2022-11-08T03:36:07.388Z,100641.94
2022-11-08T03:38:33.989Z,100655.28
2022-11-08T03:41:00.886Z,100657.19
2022-11-08T03:43:27.781Z,100651.22
2022-11-08T03:45:54.392Z,100660.50
2022-11-08T03:48:23.361Z,100647.94
2022-11-08T03:50:51.729Z,100647.16
2022-11-08T03:53:18.324Z,100651.22
2022-11-08T03:55:44.917Z,100648.53
2022-11-08T03:58:12.028Z,100647.16
2022-11-08T04:00:38.599Z,100644.19
2022-11-08T04:03:05.141Z,100638.19
2022-11-08T04:05:32.732Z,100633.88
2022-11-08T04:08:02.581Z,100637.63
2022-11-08T04:10:29.465Z,100630.31
2022-11-08T04:13:17.941Z,100634.41
2022-11-08T04:15:45.422Z,100623.81
2022-11-08T04:18:30.591Z,100626.25
2022-11-08T04:21:18.961Z,100630.91
2022-11-08T04:23:46.241Z,100626.00
2022-11-08T04:26:12.717Z,100624.13
2022-11-08T04:28:41.476Z,100622.78
2022-11-08T04:31:19.153Z,100629.84
2022-11-08T04:33:46.306Z,100628.78
2022-11-08T04:36:16.743Z,100624.97
2022-11-08T04:38:44.009Z,100632.03
2022-11-08T04:41:13.016Z,100623.06
2022-11-08T04:43:39.953Z,100619.53
2022-11-08T04:46:09.150Z,100614.66
2022-11-08T04:48:37.073Z,100623.91
2022-11-08T04:51:05.421Z,100612.22
2022-11-08T04:53:32.779Z,100603.22
2022-11-08T04:56:05.464Z,100617.91
2022-11-08T04:58:37.005Z,100608.72
2022-11-08T05:01:05.220Z,100604.88
2022-11-08T05:03:32.090Z,100610.06
2022-11-08T05:06:11.581Z,100602.47
2022-11-08T05:08:39.207Z,100596.19
2022-11-08T05:11:09.371Z,100595.09
2022-11-08T05:13:36.432Z,100598.06
2022-11-08T05:16:08.707Z,100589.13
2022-11-08T05:18:35.399Z,100589.09
2022-11-08T05:21:22.044Z,100593.47
2022-11-08T05:23:49.888Z,100586.38
2022-11-08T05:26:18.116Z,100583.38
2022-11-08T05:28:44.903Z,100570.06
2022-11-08T05:31:11.595Z,100574.97
2022-11-08T05:33:38.263Z,100578.00
2022-11-08T05:36:12.955Z,100576.91
2022-11-08T05:38:40.988Z,100567.69
2022-11-08T05:41:11.264Z,100570.97
2022-11-08T05:43:38.123Z,100572.59
2022-11-08T05:46:05.117Z,100567.72
2022-11-08T05:48:31.697Z,100574.25
2022-11-08T05:50:58.181Z,100567.16
2022-11-08T05:53:25.062Z,100562.59
2022-11-08T05:55:58.207Z,100567.19
2022-11-08T05:58:25.142Z,100566.66
2022-11-08T06:00:51.594Z,100563.69
2022-11-08T06:03:22.611Z,100563.44
2022-11-08T06:05:50.188Z,100558.25
2022-11-08T06:08:16.750Z,100559.34
2022-11-08T06:10:43.315Z,100555.28
2022-11-08T06:13:09.752Z,100555.00
2022-11-08T06:15:36.365Z,100544.94
2022-11-08T06:18:04.484Z,100563.44
2022-11-08T06:20:31.410Z,100556.34
2022-11-08T06:22:57.937Z,100556.06
2022-11-08T06:25:24.451Z,100555.50
2022-11-08T06:27:50.894Z,100557.41
2022-11-08T06:30:17.512Z,100555.53
2022-11-08T06:32:43.999Z,100553.63
2022-11-08T06:35:10.543Z,100558.78
2022-11-08T06:37:37.104Z,100556.88
2022-11-08T06:40:03.884Z,100551.97
2022-11-08T06:42:30.488Z,100555.78
2022-11-08T06:44:56.922Z,100552.25
2022-11-08T06:47:23.431Z,100552.50
2022-11-08T06:49:49.953Z,100557.97
2022-11-08T06:52:16.436Z,100552.81
2022-11-08T06:54:42.911Z,100566.34
2022-11-08T06:57:09.663Z,100565.84
2022-11-08T06:59:36.107Z,100570.72
2022-11-08T07:02:05.748Z,100566.34
2022-11-08T07:04:32.691Z,100566.09
2022-11-08T07:06:59.957Z,100566.38
2022-11-08T07:09:26.739Z,100572.34
2022-11-08T07:11:53.206Z,100567.44
2022-11-08T07:14:19.671Z,100570.16
2022-11-08T07:16:46.125Z,100566.66
2022-11-08T07:19:12.615Z,100559.56
2022-11-08T07:21:39.552Z,100564.75
2022-11-08T07:24:10.459Z,100557.41
2022-11-08T07:26:37.330Z,100557.94
2022-11-08T07:29:14.804Z,100555.22
2022-11-08T07:31:42.362Z,100552.53
2022-11-08T07:34:08.794Z,100541.13
2022-11-08T07:36:35.571Z,100529.13
2022-11-08T07:39:06.494Z,100533.47
2022-11-08T07:41:34.293Z,100532.13
2022-11-08T07:44:03.396Z,100529.69
2022-11-08T07:46:29.985Z,100527.78
2022-11-08T07:48:56.413Z,100517.47
2022-11-08T07:51:22.903Z,100525.06
2022-11-08T07:53:49.725Z,100521.25
2022-11-08T07:56:16.157Z,100524.78
2022-11-08T07:58:42.592Z,100533.69
2022-11-08T08:01:09.034Z,100518.22
2022-11-08T08:03:35.841Z,100513.25
2022-11-08T08:06:03.151Z,100505.59
2022-11-08T08:08:30.821Z,100510.13
2022-11-08T08:11:00.417Z,100498.41
2022-11-08T08:13:29.333Z,100490.44
2022-11-08T08:16:02.450Z,100501.56
2022-11-08T08:18:30.326Z,100505.03
2022-11-08T08:20:57.328Z,100497.41
2022-11-08T08:23:23.781Z,100500.97
2022-11-08T08:25:50.212Z,100497.16
2022-11-08T08:28:16.620Z,100493.56
2022-11-08T08:30:43.073Z,100495.94
2022-11-08T08:33:34.011Z,100473.00
2022-11-08T08:36:05.228Z,100469.97
2022-11-08T08:38:33.459Z,100474.09
2022-11-08T08:41:04.312Z,100465.59
2022-11-08T08:43:34.387Z,100472.00
2022-11-08T08:46:04.509Z,100475.69
2022-11-08T08:48:32.502Z,100470.47
2022-11-08T08:51:00.051Z,100476.41
2022-11-08T08:53:28.668Z,100476.09
2022-11-08T08:55:55.177Z,100467.56
2022-11-08T08:58:22.212Z,100475.03
2022-11-08T09:03:36.272Z,100478.03
2022-11-08T09:06:03.675Z,100470.28
2022-11-08T09:08:30.783Z,100463.44
2022-11-08T09:10:59.505Z,100450.72
2022-11-08T09:13:27.756Z,100444.97
2022-11-08T09:15:54.876Z,100451.41
2022-11-08T09:18:21.481Z,100431.94
2022-11-08T09:20:48.014Z,100438.34
2022-11-08T09:23:16.948Z,100436.56
2022-11-08T09:25:43.716Z,100425.09
2022-11-08T09:28:10.322Z,100436.91
2022-11-08T09:30:37.270Z,100426.22
2022-11-08T09:33:05.303Z,100430.28
2022-11-08T09:35:31.912Z,100427.69
2022-11-08T09:37:58.765Z,100426.81
2022-11-08T09:40:48.887Z,100422.34
2022-11-08T09:43:38.395Z,100425.00
2022-11-08T09:46:09.663Z,100420.56
2022-11-08T09:48:41.960Z,100433.09
2022-11-08T09:51:22.532Z,100420.38
2022-11-08T09:53:52.180Z,100433.03
2022-11-08T09:56:23.377Z,100423.44
2022-11-08T09:58:58.179Z,100423.88
2022-11-08T10:01:27.487Z,100416.88
2022-11-08T10:03:58.897Z,100417.41
2022-11-08T10:06:47.378Z,100418.84
2022-11-08T10:09:38.641Z,100410.34
2022-11-08T10:12:17.955Z,100407.00
2022-11-08T10:15:28.372Z,100408.53
2022-11-08T10:18:10.546Z,100407.50
2022-11-08T10:21:05.559Z,100400.72
2022-11-08T10:23:45.589Z,100393.59
2022-11-08T10:26:18.073Z,100386.78
2022-11-08T10:28:51.129Z,100381.50
2022-11-08T10:31:19.839Z,100382.88
2022-11-08T10:33:55.228Z,100370.53
2022-11-08T10:36:24.452Z,100368.34
2022-11-08T10:39:04.460Z,100362.25
2022-11-08T10:41:47.354Z,100360.19
2022-11-08T10:44:23.759Z,100359.56
2022-11-08T10:46:56.180Z,100359.47
2022-11-08T10:49:26.517Z,100354.00
2022-11-08T10:51:56.197Z,100352.69
2022-11-08T10:54:45.485Z,100352.69
2022-11-08T10:57:33.751Z,100343.84
2022-11-08T11:00:18.526Z,100339.22
2022-11-08T11:02:46.322Z,100342.16
2022-11-08T11:05:15.975Z,100337.50
2022-11-08T11:08:08.022Z,100335.75
2022-11-08T11:10:47.561Z,100339.59
2022-11-08T11:13:14.106Z,100348.81
2022-11-08T11:15:58.320Z,100348.19
2022-11-08T11:18:27.636Z,100346.09
2022-11-08T11:21:07.348Z,100342.28
2022-11-08T11:23:33.826Z,100342.72
2022-11-08T11:26:00.542Z,100329.38
2022-11-08T11:28:27.298Z,100324.06
2022-11-08T11:31:15.098Z,100323.25
2022-11-08T11:33:46.352Z,100316.31
2022-11-08T11:36:17.831Z,100313.75
2022-11-08T11:38:53.762Z,100313.44
2022-11-08T11:41:34.386Z,100309.59
2022-11-08T11:44:14.088Z,100309.28
2022-11-08T11:46:54.450Z,100308.78
2022-11-08T11:49:21.688Z,100300.25
2022-11-08T11:51:52.674Z,100306.53
2022-11-08T11:54:19.180Z,100302.81
2022-11-08T11:56:56.549Z,100293.81
2022-11-08T12:00:08.177Z,100294.97
2022-11-08T12:02:53.366Z,100297.34
2022-11-08T12:05:29.880Z,100291.22
2022-11-08T12:08:18.743Z,100292.03
2022-11-08T12:10:51.555Z,100283.03
2022-11-08T12:13:18.018Z,100280.13
2022-11-08T12:16:03.518Z,100280.28
2022-11-08T12:18:48.810Z,100289.59
2022-11-08T12:21:54.776Z,100279.34
2022-11-08T12:24:53.451Z,100267.47
2022-11-08T12:27:42.052Z,100269.41
2022-11-08T12:30:11.479Z,100260.22
2022-11-08T12:33:04.556Z,100256.22
2022-11-08T12:35:37.201Z,100254.44
2022-11-08T12:38:29.112Z,100250.59
2022-11-08T12:41:37.477Z,100256.41
2022-11-08T12:44:28.704Z,100250.44
2022-11-08T12:47:19.583Z,100246.56
2022-11-08T12:49:54.024Z,100239.66
2022-11-08T12:52:44.728Z,100230.44
2022-11-08T12:55:22.541Z,100233.34
2022-11-08T12:57:53.449Z,100237.56
2022-11-08T13:00:20.255Z,100241.09
2022-11-08T13:03:25.203Z,100230.28
2022-11-08T13:06:19.008Z,100234.97
2022-11-08T13:09:09.200Z,100236.28
2022-11-08T13:12:08.004Z,100236.44
2022-11-08T13:14:40.027Z,100227.38
2022-11-08T13:17:26.201Z,100229.38
2022-11-08T13:19:58.445Z,100225.16
2022-11-08T13:22:31.151Z,100225.47
2022-11-08T13:25:20.832Z,100228.84
2022-11-08T13:27:48.626Z,100226.41
2022-11-08T13:30:15.163Z,100236.94
2022-11-08T13:32:59.524Z,100235.03
2022-11-08T13:35:41.452Z,100235.00
2022-11-08T13:38:42.051Z,100227.91
2022-11-08T13:41:16.266Z,100226.75
2022-11-08T13:43:42.885Z,100230.97
2022-11-08T13:46:27.786Z,100228.72
2022-11-08T13:49:05.607Z,100230.81
2022-11-08T13:51:37.395Z,100237.44
2022-11-08T13:54:22.355Z,100240.66
2022-11-08T13:56:53.707Z,100230.19
2022-11-08T13:59:32.910Z,100239.97
2022-11-08T14:02:05.757Z,100234.03
2022-11-08T14:04:37.350Z,100224.19
2022-11-08T14:07:27.985Z,100235.59
2022-11-08T14:10:16.375Z,100235.78
2022-11-08T14:13:17.121Z,100233.34
2022-11-08T14:15:50.635Z,100233.50
2022-11-08T14:18:39.240Z,100234.28
2022-11-08T14:21:07.443Z,100236.19
2022-11-08T14:23:41.817Z,100243.75
2022-11-08T14:26:11.300Z,100236.34
2022-11-08T14:29:03.483Z,100237.66
2022-11-08T14:31:34.697Z,100242.13
2022-11-08T14:34:02.656Z,100234.38
2022-11-08T14:36:31.769Z,100238.88
2022-11-08T14:39:03.767Z,100242.56
2022-11-08T14:41:32.637Z,100236.91
2022-11-08T14:44:01.466Z,100232.72
2022-11-08T14:46:35.725Z,100236.78
2022-11-08T14:49:21.489Z,100232.72
2022-11-08T14:52:07.221Z,100235.00
2022-11-08T14:54:39.393Z,100227.56
2022-11-08T14:57:35.845Z,100219.50
2022-11-08T15:00:07.561Z,100222.91
2022-11-08T15:02:34.835Z,100226.44
2022-11-08T15:05:01.544Z,100226.72
2022-11-08T15:07:28.354Z,100237.03
2022-11-08T15:09:55.180Z,100235.59
2022-11-08T15:12:24.392Z,100242.50
2022-11-08T15:15:01.228Z,100253.16
2022-11-08T15:17:39.092Z,100239.78
2022-11-08T15:20:13.024Z,100244.44
2022-11-08T15:22:40.131Z,100242.53
2022-11-08T15:25:42.652Z,100247.97
2022-11-08T15:28:21.465Z,100245.56
2022-11-08T15:30:56.210Z,100243.13
2022-11-08T15:33:24.866Z,100242.63
2022-11-08T15:35:51.870Z,100238.56
2022-11-08T15:38:24.188Z,100254.56
2022-11-08T15:40:52.951Z,100243.94
2022-11-08T15:43:31.529Z,100246.03
2022-11-08T15:46:03.494Z,100245.97
2022-11-08T15:48:30.453Z,100236.28
2022-11-08T15:50:57.559Z,100225.63
2022-11-08T15:53:25.910Z,100228.84
2022-11-08T15:55:57.429Z,100216.78
2022-11-08T15:58:36.272Z,100219.00
2022-11-08T16:01:05.395Z,100217.25
2022-11-08T16:03:33.951Z,100203.41
2022-11-08T16:06:00.423Z,100197.44
2022-11-08T16:08:28.350Z,100201.31
2022-11-08T16:10:59.829Z,100191.31
2022-11-08T16:13:37.024Z,100181.00
2022-11-08T16:16:10.144Z,100182.75
2022-11-08T16:18:36.650Z,100178.53
2022-11-08T16:21:03.733Z,100174.56
2022-11-08T16:23:30.256Z,100183.38
2022-11-08T16:25:57.563Z,100183.34
2022-11-08T16:28:29.567Z,100180.91
2022-11-08T16:30:57.276Z,100190.06
2022-11-08T16:33:26.079Z,100174.59
2022-11-08T16:35:55.800Z,100187.94
2022-11-08T16:38:25.135Z,100191.47
2022-11-08T16:40:51.669Z,100190.38
2022-11-08T16:43:18.104Z,100195.78
2022-11-08T16:46:04.343Z,100190.84
2022-11-08T16:48:31.401Z,100189.44
2022-11-08T16:51:01.405Z,100188.13
2022-11-08T16:53:29.342Z,100188.88
2022-11-08T16:55:59.261Z,100179.25
2022-11-08T16:58:27.849Z,100175.91
2022-11-08T17:00:54.502Z,100186.78
2022-11-08T17:03:23.062Z,100194.72
2022-11-08T17:05:50.070Z,100195.47
2022-11-08T17:08:17.106Z,100197.50
2022-11-08T17:10:43.894Z,100207.66
2022-11-08T17:13:15.380Z,100206.88
2022-11-08T17:15:42.276Z,100212.88
2022-11-08T17:18:11.754Z,100204.84
2022-11-08T17:20:38.544Z,100208.03
2022-11-08T17:23:05.516Z,100201.34
2022-11-08T17:25:32.256Z,100206.72
2022-11-08T17:27:58.794Z,100220.50
2022-11-08T17:30:26.849Z,100196.91
2022-11-08T17:32:54.017Z,100196.81
2022-11-08T17:35:20.757Z,100208.72
2022-11-08T17:37:47.367Z,100203.78
2022-11-08T17:40:13.850Z,100205.88
2022-11-08T17:42:40.390Z,100205.38
2022-11-08T17:45:09.570Z,100196.28
2022-11-08T17:47:36.749Z,100204.59
2022-11-08T17:50:04.828Z,100203.56
2022-11-08T17:52:31.549Z,100212.91
2022-11-08T17:54:58.093Z,100222.28
2022-11-08T17:57:24.862Z,100225.22
2022-11-08T17:59:51.377Z,100214.91
2022-11-08T18:02:17.860Z,100216.34
2022-11-08T18:04:44.440Z,100231.00
2022-11-08T18:07:10.924Z,100230.09
2022-11-08T18:09:37.726Z,100214.13
2022-11-08T18:12:04.864Z,100213.47
2022-11-08T18:14:31.588Z,100214.19
2022-11-08T18:16:59.640Z,100218.19
2022-11-08T18:19:26.282Z,100222.63
2022-11-08T18:21:52.792Z,100225.75
2022-11-08T18:24:19.463Z,100222.00
2022-11-08T18:26:45.938Z,100217.66
2022-11-08T18:29:12.428Z,100216.75
2022-11-08T18:31:39.186Z,100218.06
2022-11-08T18:34:05.867Z,100210.84
2022-11-08T18:36:32.502Z,100212.91
2022-11-08T18:39:00.801Z,100214.84
2022-11-08T18:41:31.658Z,100225.63
2022-11-08T18:44:00.369Z,100219.03
2022-11-08T18:46:34.882Z,100215.50
2022-11-08T18:49:05.100Z,100219.88
2022-11-08T18:51:31.753Z,100212.06
2022-11-08T18:53:58.245Z,100210.59
2022-11-08T18:56:25.007Z,100213.97
2022-11-08T18:58:51.486Z,100222.09
2022-11-08T19:01:18.283Z,100204.91
2022-11-08T19:03:44.769Z,100208.44
2022-11-08T19:06:11.314Z,100210.53
2022-11-08T19:08:37.941Z,100202.03
2022-11-08T19:11:07.833Z,100204.59
2022-11-08T19:13:36.595Z,100216.63
2022-11-08T19:16:05.163Z,100210.97
2022-11-08T19:18:32.074Z,100199.84
2022-11-08T19:20:59.981Z,100211.19
2022-11-08T19:23:27.366Z,100218.00
2022-11-08T19:26:02.589Z,100203.00
2022-11-08T19:28:33.084Z,100195.72
2022-11-08T19:31:00.166Z,100198.16
2022-11-08T19:33:29.473Z,100195.44
2022-11-08T19:36:00.755Z,100183.78
2022-11-08T19:38:27.787Z,100198.81
2022-11-08T19:40:54.201Z,100183.16
2022-11-08T19:43:21.121Z,100194.09
2022-11-08T19:45:53.235Z,100201.91
2022-11-08T19:48:20.573Z,100197.81
2022-11-08T19:50:47.821Z,100198.22
2022-11-08T19:53:14.237Z,100181.22
2022-11-08T19:55:40.685Z,100205.09
2022-11-08T19:58:07.239Z,100201.06
2022-11-08T20:00:33.990Z,100220.56
2022-11-08T20:03:08.007Z,100215.41
2022-11-08T20:05:34.664Z,100207.50
2022-11-08T20:08:04.736Z,100199.19
2022-11-08T20:10:31.701Z,100214.97
2022-11-08T20:12:58.230Z,100215.78
2022-11-08T20:15:24.709Z,100211.63
2022-11-08T20:17:51.142Z,100214.16
2022-11-08T20:20:17.649Z,100214.59
2022-11-08T20:22:47.921Z,100210.06
2022-11-08T20:25:14.741Z,100186.31
2022-11-08T20:27:41.208Z,100213.09
2022-11-08T20:30:08.430Z,100202.53
2022-11-08T20:32:35.102Z,100205.97
2022-11-08T20:35:04.167Z,100202.50
2022-11-08T20:37:30.906Z,100212.03
2022-11-08T20:39:57.440Z,100214.16
2022-11-08T20:42:24.099Z,100200.44
2022-11-08T20:44:52.993Z,100209.13
2022-11-08T20:47:20.278Z,100211.75
2022-11-08T20:49:46.748Z,100211.00
2022-11-08T20:52:16.480Z,100213.38
2022-11-08T20:54:44.170Z,100217.59
2022-11-08T20:57:11.027Z,100205.66
2022-11-08T20:59:37.760Z,100229.63
2022-11-08T21:02:04.868Z,100217.34
2022-11-08T21:04:31.596Z,100231.31
2022-11-08T21:07:59.439Z,100224.22
2022-11-08T21:09:50.515Z,100224.22
2022-11-08T21:12:18.325Z,100220.03
2022-11-08T21:14:45.462Z,100219.44
2022-11-08T21:17:27.422Z,100220.94
2022-11-08T21:19:54.347Z,100232.00
2022-11-08T21:22:20.855Z,100223.38
2022-11-08T21:24:48.128Z,100225.59
2022-11-08T21:27:15.616Z,100230.44
2022-11-08T21:29:42.130Z,100219.44
2022-11-08T21:32:08.733Z,100240.69
2022-11-08T21:34:35.361Z,100229.81
2022-11-08T21:37:01.829Z,100221.75
2022-11-08T21:39:28.277Z,100242.09
2022-11-08T21:41:54.695Z,100246.41
2022-11-08T21:44:21.245Z,100235.28
2022-11-08T21:46:47.757Z,100235.19
2022-11-08T21:49:14.374Z,100233.41
2022-11-08T21:51:40.985Z,100243.59
2022-11-08T21:54:07.539Z,100238.56
2022-11-08T21:56:35.171Z,100235.94
2022-11-08T21:59:03.141Z,100238.16
2022-11-08T22:01:31.018Z,100235.00
2022-11-08T22:04:00.640Z,100233.31
2022-11-08T22:06:28.173Z,100236.94
2022-11-08T22:08:54.703Z,100231.97
2022-11-08T22:11:21.119Z,100239.19
2022-11-08T22:13:47.614Z,100241.94
2022-11-08T22:16:14.019Z,100243.56
2022-11-08T22:19:03.480Z,100240.75
2022-11-08T22:21:39.615Z,100247.50
2022-11-08T22:24:14.588Z,100260.47
2022-11-08T22:26:41.837Z,100252.88
2022-11-08T22:29:08.885Z,100248.19
2022-11-08T22:31:36.281Z,100247.81
2022-11-08T22:34:03.868Z,100244.88
2022-11-08T22:36:30.433Z,100248.22
2022-11-08T22:38:56.948Z,100256.94
2022-11-08T22:41:24.044Z,100253.91
2022-11-08T22:43:50.937Z,100259.25
2022-11-08T22:46:17.997Z,100259.38
2022-11-08T22:48:44.995Z,100253.38
2022-11-08T22:51:11.744Z,100265.72
2022-11-08T22:53:38.420Z,100259.06
2022-11-08T22:56:10.788Z,100257.44
2022-11-08T22:58:38.093Z,100257.75
2022-11-08T23:01:05.063Z,100256.94
2022-11-08T23:03:31.589Z,100244.78
2022-11-08T23:05:58.262Z,100256.84
2022-11-08T23:08:26.477Z,100253.28
2022-11-08T23:11:11.988Z,100249.75
2022-11-08T23:13:57.759Z,100238.53
2022-11-08T23:16:37.327Z,100237.72
2022-11-08T23:19:33.345Z,100236.41
2022-11-08T23:22:19.635Z,100231.34
2022-11-08T23:24:46.085Z,100234.06
2022-11-08T23:27:33.446Z,100223.16
2022-11-08T23:30:18.794Z,100235.78
2022-11-08T23:32:47.896Z,100235.88
2022-11-08T23:35:15.489Z,100244.66
2022-11-08T23:37:42.342Z,100244.16
2022-11-08T23:40:29.124Z,100247.50
2022-11-08T23:43:23.189Z,100243.66
2022-11-08T23:45:49.908Z,100258.81
2022-11-08T23:48:16.392Z,100250.91
2022-11-08T23:50:51.105Z,100251.75
2022-11-08T23:53:18.573Z,100249.63
2022-11-08T23:55:45.341Z,100253.94
2022-11-08T23:58:13.374Z,100247.09
